Time;durP1;ratioP1;P1;durP2;ratioP2;P2;SDS_P1;SDS_P2;PMS_P1;PMS_P2;Temp;Humidity;BMP_temperature;BMP_pressure;BME280_temperature;BME280_humidity;BME280_pressure;Samples;Min_cycle;Max_cycle;Signal;HPM_P1;HPM_P2
2021/05/10 00:00:36;;;;;;;8.07;1.83;;;;;;;21.27;37.83;97675.16;3581921;40;20056;-65
2021/05/10 00:03:04;;;;;;;3.05;1.80;;;;;;;21.26;37.80;97670.06;3581361;40;20053;-65
2021/05/10 00:05:31;;;;;;;2.78;1.58;;;;;;;21.28;37.99;97649.06;3578825;40;20064;-67
2021/05/10 00:07:58;;;;;;;4.72;1.50;;;;;;;21.30;37.75;97651.47;3579349;40;20045;-63
2021/05/10 00:10:25;;;;;;;1.85;1.60;;;;;;;21.31;37.77;97659.25;3580388;40;20021;-63
2021/05/10 00:12:51;;;;;;;3.17;1.70;;;;;;;21.33;38.10;97657.09;3579710;40;20037;-64
2021/05/10 00:15:18;;;;;;;3.13;1.90;;;;;;;21.32;38.03;97660.88;3579483;40;20048;-64
2021/05/10 00:17:45;;;;;;;4.28;1.67;;;;;;;21.29;37.89;97650.66;3579396;40;20053;-64
2021/05/10 00:20:14;;;;;;;2.92;1.70;;;;;;;21.26;38.00;97651.22;3579384;40;20048;-64
2021/05/10 00:22:40;;;;;;;3.45;1.52;;;;;;;21.25;37.81;97652.34;3579885;40;20029;-65
2021/05/10 00:25:08;;;;;;;1.77;1.58;;;;;;;21.25;38.35;97655.03;3570211;40;20351;-64
2021/05/10 00:27:34;;;;;;;1.73;1.63;;;;;;;21.25;38.34;97614.72;3579476;40;20055;-65
2021/05/10 00:30:01;;;;;;;3.03;1.80;;;;;;;21.26;39.79;97602.84;3579441;40;20044;-65
2021/05/10 00:32:28;;;;;;;4.95;2.00;;;;;;;21.13;42.17;97522.97;3579413;40;20056;-65
2021/05/10 00:34:59;;;;;;;3.55;1.70;;;;;;;20.91;42.19;97510.16;3579597;40;20053;-65
2021/05/10 00:37:27;;;;;;;2.60;1.50;;;;;;;20.83;42.52;97525.03;3579115;40;20133;-66
2021/05/10 00:39:54;;;;;;;2.78;1.38;;;;;;;20.82;42.94;97506.50;3578220;40;20395;-65
2021/05/10 00:42:21;;;;;;;1.38;1.27;;;;;;;20.86;43.13;97519.09;3579067;40;20078;-65
2021/05/10 00:44:48;;;;;;;3.42;2.10;;;;;;;20.76;44.04;97508.47;3579000;40;20402;-64
2021/05/10 00:47:15;;;;;;;4.70;1.98;;;;;;;20.53;45.09;97504.75;3578769;40;20088;-66
2021/05/10 00:49:42;;;;;;;5.38;1.80;;;;;;;20.35;46.23;97508.97;3578995;40;20326;-65
2021/05/10 00:52:09;;;;;;;4.18;1.60;;;;;;;20.17;46.14;97505.16;3578977;40;20048;-65
2021/05/10 00:54:37;;;;;;;2.53;1.88;;;;;;;20.06;46.35;97509.03;3578937;40;20053;-64
2021/05/10 00:57:05;;;;;;;5.38;2.08;;;;;;;20.02;46.42;97503.44;3577395;40;20064;-65
2021/05/10 00:59:32;;;;;;;5.25;1.88;;;;;;;20.04;46.54;97512.03;3578933;40;20048;-64
2021/05/10 01:01:58;;;;;;;2.03;1.83;;;;;;;19.98;47.03;97513.16;3569656;40;20037;-65
2021/05/10 01:04:25;;;;;;;3.45;1.95;;;;;;;19.89;47.26;97522.09;3579810;40;20034;-65
2021/05/10 01:06:52;;;;;;;2.38;2.17;;;;;;;19.83;47.91;97512.50;3579201;40;20481;-64
2021/05/10 01:09:19;;;;;;;3.63;1.98;;;;;;;19.68;48.64;97500.84;3569702;40;20407;-64
2021/05/10 01:11:47;;;;;;;3.40;2.10;;;;;;;19.53;49.53;97500.97;3581484;40;20061;-65
2021/05/10 01:14:13;;;;;;;2.00;1.90;;;;;;;19.42;49.53;97508.28;3581487;40;20052;-65
2021/05/10 01:16:41;;;;;;;4.30;2.20;;;;;;;19.38;50.35;97512.59;3581183;40;20040;-65
2021/05/10 01:19:09;;;;;;;4.03;2.22;;;;;;;19.33;50.37;97514.53;3579588;40;20491;-64
2021/05/10 01:21:36;;;;;;;2.20;2.00;;;;;;;19.17;51.33;97511.97;3579091;40;20053;-64
2021/05/10 01:24:04;;;;;;;2.47;2.28;;;;;;;19.12;51.58;97508.53;3578971;40;20044;-64
2021/05/10 01:26:31;;;;;;;4.75;2.10;;;;;;;19.01;51.83;97519.31;3578949;40;20052;-64
2021/05/10 01:28:58;;;;;;;7.25;2.85;;;;;;;19.00;52.12;97512.34;3578683;40;20093;-64
2021/05/10 01:31:25;;;;;;;3.97;2.25;;;;;;;19.03;52.44;97521.72;3581358;40;20030;-64
2021/05/10 01:33:52;;;;;;;4.32;2.50;;;;;;;18.99;52.62;97528.72;3572211;40;20068;-64
2021/05/10 01:36:18;;;;;;;3.63;2.65;;;;;;;19.00;52.82;97527.63;3580699;40;20291;-64
2021/05/10 01:38:45;;;;;;;4.47;2.40;;;;;;;19.01;53.04;97529.22;3578354;40;20049;-64
2021/05/10 01:41:13;;;;;;;4.32;3.75;;;;;;;18.98;53.52;97540.47;3580105;40;20049;-65
2021/05/10 01:43:40;;;;;;;5.53;3.05;;;;;;;18.97;53.46;97541.56;3580577;40;20049;-65
2021/05/10 01:46:06;;;;;;;4.88;3.88;;;;;;;18.91;54.00;97551.53;3580044;40;20153;-65
2021/05/10 01:48:33;;;;;;;3.00;2.58;;;;;;;18.83;54.76;97540.59;3580242;40;20075;-64
2021/05/10 01:51:00;;;;;;;5.05;2.53;;;;;;;18.68;55.04;97534.19;3580356;40;20047;-64
2021/05/10 01:53:28;;;;;;;4.32;2.63;;;;;;;18.56;55.66;97531.06;3580990;40;20048;-64
2021/05/10 01:55:55;;;;;;;4.82;2.88;;;;;;;18.52;56.27;97528.13;3580413;40;20052;-64
2021/05/10 01:58:23;;;;;;;2.50;2.30;;;;;;;18.37;56.24;97544.25;3582270;40;20060;-64
2021/05/10 02:00:50;;;;;;;3.65;2.58;;;;;;;18.40;56.19;97553.59;3580030;40;20076;-64
2021/05/10 02:03:19;;;;;;;4.85;2.75;;;;;;;18.42;56.36;97548.78;3579875;40;20049;-63
2021/05/10 02:05:47;;;;;;;3.47;2.42;;;;;;;18.46;56.38;97541.81;3579594;40;20040;-65
2021/05/10 02:08:15;;;;;;;4.32;2.80;;;;;;;18.37;56.27;97548.78;3579003;40;20487;-63
2021/05/10 02:10:44;;;;;;;5.50;2.65;;;;;;;18.33;56.84;97551.22;3578775;40;20051;-64
2021/05/10 02:13:13;;;;;;;4.18;2.50;;;;;;;18.35;57.02;97537.56;3579208;40;20436;-64
2021/05/10 02:15:43;;;;;;;3.30;2.33;;;;;;;18.36;56.47;97539.97;3579614;40;20044;-64
2021/05/10 02:18:11;;;;;;;3.40;2.53;;;;;;;18.45;56.50;97554.41;3578305;40;20061;-65
2021/05/10 02:20:39;;;;;;;3.58;2.25;;;;;;;18.61;55.71;97531.03;3579197;40;20048;-64
2021/05/10 02:23:08;;;;;;;4.97;2.70;;;;;;;18.55;55.31;97529.47;3618222;23;20036;-63
2021/05/10 02:25:37;;;;;;;3.55;2.38;;;;;;;18.51;55.17;97537.22;3591638;40;20049;-63
2021/05/10 02:28:05;;;;;;;4.97;2.80;;;;;;;18.56;54.62;97528.38;3593189;40;20044;-64
2021/05/10 02:30:33;;;;;;;3.63;2.70;;;;;;;18.58;54.29;97520.09;3593719;40;20044;-64
2021/05/10 02:33:05;;;;;;;3.25;2.80;;;;;;;18.57;54.16;97527.28;3593327;40;20044;-63
2021/05/10 02:35:32;;;;;;;3.88;2.70;;;;;;;18.62;53.89;97524.63;3591376;40;20052;-64
2021/05/10 02:37:59;;;;;;;3.53;2.63;;;;;;;18.67;52.78;97521.91;3590991;40;20054;-64
2021/05/10 02:40:26;;;;;;;2.83;2.20;;;;;;;18.75;51.86;97518.69;3590333;40;20408;-63
2021/05/10 02:42:53;;;;;;;2.60;2.20;;;;;;;18.85;51.14;97515.13;3581246;40;20071;-64
2021/05/10 02:45:20;;;;;;;3.55;1.70;;;;;;;19.01;49.37;97510.47;3590527;40;20052;-63
2021/05/10 02:47:48;;;;;;;2.25;1.50;;;;;;;19.20;47.84;97513.31;3589715;40;20044;-63
2021/05/10 02:50:18;;;;;;;2.75;1.58;;;;;;;19.42;46.35;97518.22;3589883;40;20085;-64
2021/05/10 02:52:45;;;;;;;4.65;1.50;;;;;;;19.55;45.55;97510.34;3589749;40;20048;-63
2021/05/10 02:55:12;;;;;;;2.88;1.55;;;;;;;19.59;45.22;97515.09;3589770;40;20055;-64
2021/05/10 02:57:41;;;;;;;1.55;1.45;;;;;;;19.66;45.41;97507.56;3580094;40;20045;-64
2021/05/10 03:00:10;;;;;;;2.03;1.60;;;;;;;19.66;44.81;97505.69;3589663;40;20055;-63
2021/05/10 03:02:37;;;;;;;2.88;1.80;;;;;;;19.70;44.91;97516.66;3580560;40;20044;-64
2021/05/10 03:05:05;;;;;;;3.42;1.80;;;;;;;19.72;44.38;97509.94;3589824;40;20068;-64
2021/05/10 03:07:33;;;;;;;3.03;1.40;;;;;;;19.74;43.89;97528.41;3589494;40;20048;-63
2021/05/10 03:09:59;;;;;;;2.90;1.63;;;;;;;19.79;44.06;97547.13;3581112;40;20055;-63
2021/05/10 03:12:27;;;;;;;2.60;1.60;;;;;;;19.87;43.74;97521.56;3592450;40;20064;-64
2021/05/10 03:14:54;;;;;;;4.22;1.98;;;;;;;19.95;43.32;97553.13;3592279;40;20466;-64
2021/05/10 03:17:21;;;;;;;2.58;2.05;;;;;;;19.87;45.26;97569.84;3582734;40;20071;-63
2021/05/10 03:19:48;;;;;;;2.65;1.70;;;;;;;19.63;46.70;97588.56;3592620;40;20052;-63
2021/05/10 03:22:15;;;;;;;3.80;1.90;;;;;;;19.44;47.47;97683.00;3589683;40;20386;-63
2021/05/10 03:24:43;;;;;;;4.03;2.03;;;;;;;19.22;47.13;97695.97;3589878;40;20055;-64
2021/05/10 03:27:12;;;;;;;5.07;2.10;;;;;;;19.14;47.71;97742.88;3589488;40;20050;-64
2021/05/10 03:29:38;;;;;;;4.78;1.80;;;;;;;19.15;47.37;97751.75;3589215;40;20040;-63
2021/05/10 03:32:05;;;;;;;3.45;1.80;;;;;;;19.29;47.19;97761.59;3589524;40;20419;-63
2021/05/10 03:34:32;;;;;;;2.70;1.70;;;;;;;19.45;46.75;97761.53;3589885;40;20044;-63
2021/05/10 03:36:59;;;;;;;2.70;1.75;;;;;;;19.54;46.51;97767.91;3589174;40;20449;-64
2021/05/10 03:39:26;;;;;;;2.15;1.63;;;;;;;19.57;47.48;97779.97;3589820;40;20048;-63
2021/05/10 03:41:54;;;;;;;4.30;2.13;;;;;;;19.50;49.21;97775.69;3590195;40;20059;-63
2021/05/10 03:44:21;;;;;;;3.28;1.80;;;;;;;19.43;49.71;97772.53;3590227;40;20064;-63
2021/05/10 03:46:47;;;;;;;3.33;1.88;;;;;;;19.34;50.74;97762.66;3590352;40;20051;-63
2021/05/10 03:49:14;;;;;;;2.55;1.70;;;;;;;19.29;51.10;97752.75;3589420;40;20050;-63
2021/05/10 03:51:41;;;;;;;3.50;2.00;;;;;;;19.25;51.66;97759.72;3589591;40;20393;-63
2021/05/10 03:54:08;;;;;;;3.40;2.50;;;;;;;19.19;51.98;97766.19;3589491;40;20418;-64
2021/05/10 03:56:35;;;;;;;4.13;2.45;;;;;;;19.14;52.12;97772.34;3589565;40;20052;-63
2021/05/10 03:59:02;;;;;;;3.47;2.05;;;;;;;19.10;52.68;97790.03;3589129;40;20132;-63
2021/05/10 04:01:29;;;;;;;2.83;2.00;;;;;;;19.04;53.36;97788.47;3589509;40;20055;-63
2021/05/10 04:04:04;;;;;;;4.43;2.03;;;;;;;18.92;53.73;97785.28;3589619;40;20059;-63
2021/05/10 04:06:41;;;;;;;2.83;2.20;;;;;;;18.82;54.49;97791.47;3589486;40;20036;-63
2021/05/10 04:14:47;;;;;;;2.13;1.90;;;;;;;18.71;54.56;97785.31;3590222;40;20044;-63
2021/05/10 04:17:13;;;;;;;4.35;1.88;;;;;;;18.65;54.00;97782.88;3589989;40;20051;-63
2021/05/10 04:19:40;;;;;;;3.05;2.00;;;;;;;18.65;53.91;97783.66;3590252;40;20044;-63
2021/05/10 04:22:07;;;;;;;2.92;2.65;;;;;;;18.68;53.36;97785.03;3589876;40;20047;-63
2021/05/10 04:24:34;;;;;;;3.22;2.22;;;;;;;18.69;53.26;97794.66;3589952;40;20052;-63
2021/05/10 04:27:04;;;;;;;4.22;2.50;;;;;;;18.69;53.00;97794.66;3580342;40;20048;-63
2021/05/10 04:29:31;;;;;;;3.47;2.05;;;;;;;18.70;52.76;97798.97;3590394;40;20059;-63
2021/05/10 04:31:59;;;;;;;2.67;1.83;;;;;;;18.75;52.33;97791.75;3589765;40;20051;-63
2021/05/10 04:34:26;;;;;;;4.15;2.20;;;;;;;18.75;52.38;97797.09;3590026;40;20110;-63
2021/05/10 04:36:53;;;;;;;7.13;2.63;;;;;;;18.75;52.64;97801.66;3589996;40;20485;-65
2021/05/10 04:39:19;;;;;;;4.60;2.50;;;;;;;18.78;51.95;97799.22;3589918;40;20084;-63
2021/05/10 04:41:46;;;;;;;3.58;2.10;;;;;;;18.78;52.31;97814.50;3580543;40;20084;-63
2021/05/10 04:44:13;;;;;;;4.65;2.15;;;;;;;18.80;51.79;97815.81;3590063;40;20061;-64
2021/05/10 04:46:40;;;;;;;2.13;1.90;;;;;;;18.79;51.43;97827.59;3590452;40;20032;-64
2021/05/10 04:49:07;;;;;;;4.80;2.92;;;;;;;18.81;51.37;97835.34;3590164;40;20033;-63
2021/05/10 04:51:34;;;;;;;6.03;1.75;;;;;;;18.81;51.41;97822.78;3581220;40;20333;-63
2021/05/10 04:54:01;;;;;;;4.35;1.80;;;;;;;18.83;51.41;97827.06;3591427;40;20390;-63
2021/05/10 04:56:27;;;;;;;3.80;2.00;;;;;;;18.88;51.40;97841.25;3590476;40;20059;-63
2021/05/10 04:58:54;;;;;;;3.55;1.77;;;;;;;18.88;51.15;97835.91;3589595;40;20052;-64
2021/05/10 05:01:21;;;;;;;5.20;2.60;;;;;;;18.88;50.97;97843.94;3589808;40;20129;-63
2021/05/10 05:03:48;;;;;;;2.97;2.50;;;;;;;18.89;51.15;97847.41;3589075;40;20092;-64
2021/05/10 05:06:16;;;;;;;5.03;2.03;;;;;;;18.86;51.45;97854.13;3589344;40;20051;-64
2021/05/10 05:08:42;;;;;;;3.95;2.05;;;;;;;18.85;51.49;97854.38;3589629;40;20386;-64
2021/05/10 05:11:09;;;;;;;2.75;1.80;;;;;;;18.84;51.17;97852.78;3580321;40;20055;-63
2021/05/10 05:13:36;;;;;;;2.40;1.83;;;;;;;18.80;51.49;97853.31;3589093;40;20044;-63
2021/05/10 05:16:03;;;;;;;4.10;2.03;;;;;;;18.82;50.90;97847.69;3580190;40;20055;-63
2021/05/10 05:18:30;;;;;;;3.78;1.98;;;;;;;18.77;50.63;97834.28;3589047;40;20061;-63
2021/05/10 05:20:56;;;;;;;3.45;2.03;;;;;;;18.71;51.57;97848.75;3589029;40;20051;-63
2021/05/10 05:23:25;;;;;;;4.35;2.03;;;;;;;18.66;51.63;97854.09;3589060;40;20029;-64
2021/05/10 05:25:57;;;;;;;3.50;1.60;;;;;;;18.52;51.65;97861.84;3590659;40;20333;-63
2021/05/10 05:28:25;;;;;;;3.00;1.70;;;;;;;18.52;51.35;97854.59;3590484;40;20126;-64
2021/05/10 05:30:52;;;;;;;2.88;1.50;;;;;;;18.55;51.47;97861.31;3589358;40;20048;-63
2021/05/10 05:33:19;;;;;;;2.42;1.27;;;;;;;18.54;51.63;97870.41;3579331;40;20052;-63
2021/05/10 05:35:45;;;;;;;4.32;1.60;;;;;;;18.40;51.79;97883.50;3588603;40;20052;-63
2021/05/10 05:38:12;;;;;;;3.00;1.70;;;;;;;18.37;52.37;97886.72;3588536;40;20071;-64
2021/05/10 05:40:42;;;;;;;3.50;1.90;;;;;;;18.43;52.34;97884.84;3579425;40;20075;-63
2021/05/10 05:43:09;;;;;;;4.18;2.10;;;;;;;18.34;52.73;97875.75;3588644;40;20048;-63
2021/05/10 05:45:36;;;;;;;2.97;1.90;;;;;;;18.36;52.47;97873.59;3588554;40;20078;-63
2021/05/10 05:48:04;;;;;;;3.33;1.80;;;;;;;18.45;52.65;97862.13;3588309;40;20044;-64
2021/05/10 05:50:31;;;;;;;5.72;2.00;;;;;;;18.48;52.83;97890.19;3588464;40;20325;-63
2021/05/10 05:52:58;;;;;;;4.57;2.05;;;;;;;18.49;52.63;97881.91;3588363;40;20053;-63
2021/05/10 05:55:26;;;;;;;8.57;2.00;;;;;;;18.50;52.60;97893.44;3588424;40;20055;-63
2021/05/10 05:57:54;;;;;;;4.63;2.20;;;;;;;18.55;52.43;97890.75;3588091;40;20133;-63
2021/05/10 06:00:21;;;;;;;3.60;1.80;;;;;;;18.53;52.66;97896.38;3588328;40;20078;-64
2021/05/10 06:02:48;;;;;;;5.70;1.80;;;;;;;18.54;52.80;97889.94;3590525;40;20436;-63
2021/05/10 06:05:16;;;;;;;5.43;2.03;;;;;;;18.60;52.53;97888.06;3590742;40;20048;-63
2021/05/10 06:07:49;;;;;;;2.22;1.60;;;;;;;18.68;52.33;97905.47;3588789;40;20032;-63
2021/05/10 06:10:18;;;;;;;7.55;2.17;;;;;;;18.65;52.03;97897.97;3588369;40;20043;-63
2021/05/10 06:12:48;;;;;;;7.93;2.25;;;;;;;18.56;52.41;97903.06;3588467;40;20025;-63
2021/05/10 06:15:17;;;;;;;2.45;1.65;;;;;;;18.43;52.40;97908.94;3579281;40;20064;-63
2021/05/10 06:17:44;;;;;;;4.53;2.40;;;;;;;18.44;52.78;97918.56;3588126;40;20044;-63
2021/05/10 06:20:12;;;;;;;3.70;1.77;;;;;;;18.40;52.86;97928.97;3588294;40;20401;-63
2021/05/10 06:22:40;;;;;;;5.38;1.98;;;;;;;18.41;52.77;97922.59;3588386;40;20035;-64
2021/05/10 06:25:10;;;;;;;3.55;1.90;;;;;;;18.50;52.65;97920.19;3588396;40;20093;-63
2021/05/10 06:27:37;;;;;;;5.68;1.73;;;;;;;18.54;52.11;97923.94;3588118;40;20081;-62
2021/05/10 06:30:05;;;;;;;4.55;2.03;;;;;;;18.53;52.43;97920.47;3588163;40;20089;-63
2021/05/10 06:32:33;;;;;;;4.15;1.88;;;;;;;18.60;52.53;97933.56;3588116;40;20056;-63
2021/05/10 06:35:01;;;;;;;2.95;1.75;;;;;;;18.51;52.73;97935.97;3588342;40;20040;-63
2021/05/10 06:37:29;;;;;;;4.38;1.60;;;;;;;18.55;52.58;97953.09;3588321;40;20067;-63
2021/05/10 06:39:56;;;;;;;5.18;2.40;;;;;;;18.58;52.33;97950.97;3588263;40;20129;-63
2021/05/10 06:42:23;;;;;;;9.05;3.08;;;;;;;18.57;52.83;97950.16;3588002;40;20095;-62
2021/05/10 06:44:51;;;;;;;4.13;2.00;;;;;;;18.52;52.46;97958.19;3588131;40;20056;-63
2021/05/10 06:47:18;;;;;;;5.38;2.05;;;;;;;18.54;52.78;97959.53;3587768;40;20048;-62
2021/05/10 06:49:45;;;;;;;3.05;1.98;;;;;;;18.66;52.33;97961.16;3588161;40;20044;-63
2021/05/10 06:52:12;;;;;;;2.35;1.60;;;;;;;18.68;52.03;97961.69;3588069;40;20045;-62
2021/05/10 06:54:39;;;;;;;3.75;1.95;;;;;;;18.66;52.39;97963.84;3588258;40;20325;-63
2021/05/10 06:57:06;;;;;;;7.28;1.85;;;;;;;18.61;51.97;97958.47;3587893;40;20611;-63
2021/05/10 06:59:33;;;;;;;2.72;1.50;;;;;;;18.59;51.88;97966.75;3589459;40;20350;-62
2021/05/10 07:02:00;;;;;;;3.25;1.85;;;;;;;18.59;52.28;97965.97;3592236;40;20055;-63
2021/05/10 07:04:26;;;;;;;3.20;1.88;;;;;;;18.56;51.93;97961.94;3592725;40;20028;-63
2021/05/10 07:06:54;;;;;;;3.15;1.42;;;;;;;18.57;52.00;97968.88;3592142;40;20053;-63
2021/05/10 07:09:21;;;;;;;2.55;1.50;;;;;;;18.49;51.90;97966.72;3590086;40;20333;-63
2021/05/10 07:11:48;;;;;;;2.40;1.50;;;;;;;18.58;52.05;97978.53;3588728;40;20051;-62
2021/05/10 07:14:15;;;;;;;2.05;1.20;;;;;;;18.63;51.44;97975.06;3589770;40;20052;-63
2021/05/10 07:16:43;;;;;;;6.03;1.50;;;;;;;18.55;51.18;97985.22;3589760;40;20048;-63
2021/05/10 07:19:10;;;;;;;2.33;1.38;;;;;;;18.59;51.16;97984.69;3589671;40;20432;-63
2021/05/10 07:21:38;;;;;;;3.60;1.35;;;;;;;18.58;51.40;97996.47;3592100;40;20050;-62
2021/05/10 07:24:06;;;;;;;1.98;1.40;;;;;;;18.58;51.75;98001.84;3594469;40;20043;-63
2021/05/10 07:26:34;;;;;;;3.00;1.35;;;;;;;18.63;51.51;98001.84;3594152;40;20402;-63
2021/05/10 07:29:01;;;;;;;3.15;1.40;;;;;;;18.61;50.85;97993.25;3594205;40;20020;-63
2021/05/10 07:31:27;;;;;;;4.32;1.15;;;;;;;18.70;50.86;97989.84;3594122;40;20048;-63
2021/05/10 07:33:54;;;;;;;2.47;1.15;;;;;;;18.71;50.60;98004.84;3592420;40;20063;-63
2021/05/10 07:36:21;;;;;;;1.58;0.90;;;;;;;18.80;50.48;97995.22;3589761;40;20053;-63
2021/05/10 07:38:48;;;;;;;2.95;1.40;;;;;;;18.88;50.59;98006.47;3589192;40;20052;-64
2021/05/10 07:41:16;;;;;;;2.88;1.00;;;;;;;18.90;50.81;98020.38;3589619;40;20044;-63
2021/05/10 07:43:43;;;;;;;5.75;5.00;;;;;;;18.97;51.29;98002.19;3589765;40;20065;-63
2021/05/10 07:46:10;;;;;;;4.10;1.50;;;;;;;18.91;51.76;98001.41;3580442;40;20060;-63
2021/05/10 07:48:36;;;;;;;2.38;1.40;;;;;;;18.78;51.45;98008.06;3589034;40;20091;-63
2021/05/10 07:51:04;;;;;;;1.90;1.30;;;;;;;18.67;51.81;98006.41;3589161;40;20098;-63
2021/05/10 07:53:31;;;;;;;1.00;0.88;;;;;;;18.50;52.13;98016.53;3590494;40;20047;-63
2021/05/10 07:55:57;;;;;;;2.03;1.02;;;;;;;18.39;52.03;98028.25;3595451;40;20044;-63
2021/05/10 07:58:25;;;;;;;1.67;1.00;;;;;;;18.40;52.08;98024.50;3594599;40;20055;-63
2021/05/10 08:00:55;;;;;;;2.25;1.10;;;;;;;18.42;51.74;98011.69;3590899;40;20043;-63
2021/05/10 08:03:26;;;;;;;4.03;1.02;;;;;;;18.43;51.94;98018.63;3589633;40;20028;-63
2021/05/10 08:05:53;;;;;;;2.72;0.82;;;;;;;18.40;51.75;98038.69;3589541;40;20433;-63
2021/05/10 08:08:22;;;;;;;1.55;1.02;;;;;;;18.32;52.24;98047.22;3589242;40;20052;-63
2021/05/10 08:10:50;;;;;;;1.75;1.00;;;;;;;18.23;52.66;98041.56;3589727;40;20051;-63
2021/05/10 08:13:17;;;;;;;1.95;1.15;;;;;;;18.30;52.62;98034.09;3589391;40;20040;-63
2021/05/10 08:15:45;;;;;;;1.38;0.90;;;;;;;18.34;52.29;98037.06;3589267;40;20293;-63
2021/05/10 08:18:13;;;;;;;2.47;0.95;;;;;;;18.38;52.13;98027.47;3589117;40;20044;-63
2021/05/10 08:20:40;;;;;;;1.63;0.80;;;;;;;18.39;51.85;98026.38;3589269;40;20032;-63
2021/05/10 08:23:08;;;;;;;1.02;0.98;;;;;;;18.41;51.79;98034.13;3649658;22;20028;-65
2021/05/10 08:25:36;;;;;;;1.23;0.90;;;;;;;18.38;51.91;98050.75;3599339;39;20129;-65
2021/05/10 08:28:03;;;;;;;2.08;1.00;;;;;;;18.36;51.52;98048.31;3598070;39;20080;-65
2021/05/10 08:30:30;;;;;;;1.60;1.00;;;;;;;18.40;51.83;98067.31;3599344;39;20129;-65
2021/05/10 08:32:58;;;;;;;1.10;1.00;;;;;;;18.30;52.11;98082.28;3599826;39;20040;-65
2021/05/10 08:35:25;;;;;;;1.38;0.80;;;;;;;18.28;51.86;98107.66;3599456;39;20052;-64
2021/05/10 08:37:57;;;;;;;2.40;0.80;;;;;;;18.19;51.92;98102.00;3598091;40;20358;-65
2021/05/10 08:40:24;;;;;;;1.55;0.80;;;;;;;18.21;52.21;98109.78;3599674;40;20297;-64
2021/05/10 08:42:51;;;;;;;1.10;1.00;;;;;;;18.36;52.63;98093.00;3599528;39;20048;-66
2021/05/10 08:45:19;;;;;;;1.27;0.80;;;;;;;18.46;52.91;98093.06;3599318;40;20051;-65
2021/05/10 08:47:47;;;;;;;3.90;0.90;;;;;;;18.55;53.08;98104.84;3599062;39;20074;-65
2021/05/10 08:50:16;;;;;;;0.82;0.82;;;;;;;18.52;53.51;98110.72;3598965;40;20055;-64
2021/05/10 08:52:43;;;;;;;2.58;1.00;;;;;;;18.42;53.26;98129.44;3598546;39;20055;-65
2021/05/10 08:55:14;;;;;;;1.25;0.80;;;;;;;18.18;53.27;98139.72;3598308;40;20052;-65
2021/05/10 08:57:41;;;;;;;1.20;1.10;;;;;;;18.10;53.20;98140.19;3599632;40;20319;-65
2021/05/10 09:00:12;;;;;;;2.47;1.25;;;;;;;18.09;53.05;98150.09;3601704;40;20048;-66
2021/05/10 09:02:39;;;;;;;1.05;0.80;;;;;;;18.02;53.05;98168.22;3603457;40;20044;-64
2021/05/10 09:05:14;;;;;;;1.90;0.65;;;;;;;17.81;53.05;98181.44;3603350;39;20055;-65
2021/05/10 09:07:42;;;;;;;2.97;1.10;;;;;;;17.64;53.85;98186.06;3602940;40;20048;-65
2021/05/10 09:10:11;;;;;;;1.27;1.02;;;;;;;17.58;54.14;98197.75;3601026;39;20055;-65
2021/05/10 09:12:45;;;;;;;1.45;0.90;;;;;;;17.63;54.52;98186.28;3599344;39;20040;-65
2021/05/10 09:15:17;;;;;;;2.45;1.70;;;;;;;17.66;55.13;98188.47;3599450;40;20054;-65
2021/05/10 09:17:45;;;;;;;1.83;1.20;;;;;;;17.60;55.22;98187.63;3599409;40;20355;-67
2021/05/10 09:20:14;;;;;;;1.42;1.10;;;;;;;17.66;55.57;98180.44;3599502;40;20324;-65
2021/05/10 09:22:48;;;;;;;0.73;0.73;;;;;;;17.65;55.34;98176.97;3599151;40;20048;-66
2021/05/10 09:25:14;;;;;;;0.90;0.70;;;;;;;17.60;55.41;98160.09;3598970;40;20124;-67
2021/05/10 09:27:46;;;;;;;2.80;0.75;;;;;;;17.60;55.19;98152.88;3598958;40;20089;-67
2021/05/10 09:30:18;;;;;;;1.67;0.95;;;;;;;17.75;55.34;98147.66;3599059;40;20317;-67
2021/05/10 09:32:53;;;;;;;1.87;0.83;;;;;;;17.82;54.53;98166.19;3600280;40;20031;-66
2021/05/10 09:35:24;;;;;;;0.60;0.60;;;;;;;17.74;55.14;98169.28;3600739;39;20586;-66
2021/05/10 09:38:03;;;;;;;0.80;0.77;;;;;;;17.67;55.36;98166.00;3600437;40;20039;-70
2021/05/10 09:40:40;;;;;;;1.50;0.90;;;;;;;17.69;55.17;98163.91;3599305;40;20048;-65
2021/05/10 09:43:08;;;;;;;2.65;1.42;;;;;;;17.74;55.85;98169.28;3598966;40;20047;-66
2021/05/10 09:45:38;;;;;;;0.85;0.70;;;;;;;17.69;55.51;98174.59;3598910;40;20102;-66
2021/05/10 09:48:11;;;;;;;2.00;1.10;;;;;;;17.70;56.02;98170.88;3599147;40;20463;-66
2021/05/10 09:50:40;;;;;;;1.40;1.27;;;;;;;17.78;56.02;98179.25;3604257;39;20055;-66
2021/05/10 09:53:11;;;;;;;0.73;0.73;;;;;;;17.81;55.98;98194.00;3604601;39;20047;-66
2021/05/10 09:55:46;;;;;;;1.00;0.90;;;;;;;17.77;56.25;98199.03;3598593;40;20054;-66
2021/05/10 09:58:14;;;;;;;1.65;1.15;;;;;;;17.82;56.10;98207.09;3598606;39;20071;-66
2021/05/10 10:00:42;;;;;;;6.95;3.97;;;;;;;17.79;56.27;98209.47;3598721;40;20399;-66
2021/05/10 10:03:27;;;;;;;1.30;0.90;;;;;;;17.52;57.42;98225.50;3598880;40;20419;-65
2021/05/10 10:05:56;;;;;;;1.10;1.00;;;;;;;17.64;57.84;98236.03;3598798;40;20048;-64
2021/05/10 10:08:24;;;;;;;4.80;2.00;;;;;;;17.85;57.55;98227.19;3598118;39;20062;-65
2021/05/10 10:10:51;;;;;;;1.95;0.95;;;;;;;17.97;57.76;98235.03;3599874;39;20375;-65
2021/05/10 10:13:19;;;;;;;2.25;0.90;;;;;;;17.92;57.94;98238.47;3599441;40;20335;-64
2021/05/10 10:15:47;;;;;;;1.73;1.08;;;;;;;17.99;58.02;98233.72;3599039;39;20056;-65
2021/05/10 10:18:21;;;;;;;2.28;1.02;;;;;;;18.08;58.25;98244.75;3598839;40;20050;-66
2021/05/10 10:20:49;;;;;;;1.35;1.00;;;;;;;17.79;58.77;98246.88;3599658;40;20392;-66
2021/05/10 10:23:18;;;;;;;2.50;1.10;;;;;;;17.77;59.44;98247.16;3598096;39;20050;-65
2021/05/10 10:25:46;;;;;;;3.20;1.48;;;;;;;17.69;59.46;98242.22;3599880;40;20406;-66
2021/05/10 10:28:17;;;;;;;2.15;1.45;;;;;;;17.73;60.07;98243.34;3601779;40;20351;-65
2021/05/10 10:30:53;;;;;;;4.43;1.48;;;;;;;17.55;61.10;98236.47;3601488;40;20028;-67
2021/05/10 10:33:48;;;;;;;3.03;1.40;;;;;;;17.54;61.06;98242.06;3600129;40;20044;-66
2021/05/10 10:36:20;;;;;;;2.58;1.20;;;;;;;17.63;61.14;98231.72;3582304;39;20080;-66
2021/05/10 10:38:47;;;;;;;3.50;1.13;;;;;;;17.70;61.25;98237.69;3599900;40;20028;-65
2021/05/10 10:41:19;;;;;;;3.42;0.82;;;;;;;17.78;60.77;98232.72;3600362;40;20298;-67
2021/05/10 10:43:47;;;;;;;2.25;1.25;;;;;;;17.70;61.43;98251.84;3598960;40;20040;-66
2021/05/10 10:46:18;;;;;;;3.10;1.35;;;;;;;17.64;62.12;98268.91;3598812;39;20040;-66
2021/05/10 10:48:45;;;;;;;1.20;1.10;;;;;;;17.55;62.31;98284.59;3600396;40;20332;-66
2021/05/10 10:51:15;;;;;;;1.25;1.15;;;;;;;17.53;62.37;98280.53;3600541;39;20051;-66
2021/05/10 10:53:44;;;;;;;1.98;0.85;;;;;;;17.52;62.24;98282.41;3600229;39;20044;-66
2021/05/10 10:56:11;;;;;;;2.45;1.40;;;;;;;17.53;62.45;98276.00;3600416;40;20051;-66
2021/05/10 10:58:41;;;;;;;1.85;0.93;;;;;;;17.53;62.99;98289.34;3600288;40;20079;-66
2021/05/10 11:01:14;;;;;;;2.78;1.20;;;;;;;17.46;63.06;98295.94;3601035;39;20047;-65
2021/05/10 11:03:41;;;;;;;2.80;1.20;;;;;;;17.40;62.97;98303.09;3602767;40;20059;-65
2021/05/10 11:06:09;;;;;;;2.35;1.27;;;;;;;17.17;64.05;98304.16;3603027;40;20039;-65
2021/05/10 11:08:47;;;;;;;2.28;1.00;;;;;;;16.97;64.90;98306.53;3604319;40;20085;-65
2021/05/10 11:11:39;;;;;;;1.80;1.10;;;;;;;16.84;65.25;98279.13;3603674;40;20052;-65
2021/05/10 11:14:11;;;;;;;3.50;1.25;;;;;;;16.86;65.90;98257.56;3605704;40;20075;-65
2021/05/10 11:16:47;;;;;;;1.33;1.08;;;;;;;16.87;65.43;98245.81;3605767;40;20057;-66
2021/05/10 11:19:31;;;;;;;1.42;1.17;;;;;;;16.81;65.69;98241.44;3605151;40;20043;-66
2021/05/10 11:21:58;;;;;;;1.30;1.05;;;;;;;16.83;66.02;98236.69;3605042;40;20043;-66
2021/05/10 11:24:30;;;;;;;2.40;1.38;;;;;;;16.90;66.44;98231.16;3604945;39;20312;-67
2021/05/10 11:27:00;;;;;;;1.77;1.20;;;;;;;16.74;66.54;98227.50;3604385;40;20051;-66
2021/05/10 11:29:47;;;;;;;0.98;0.98;;;;;;;16.45;67.02;98232.94;3604750;40;20054;-66
2021/05/10 11:32:26;;;;;;;1.08;1.02;;;;;;;16.58;66.81;98258.47;3604831;40;20375;-67
2021/05/10 11:34:53;;;;;;;2.35;1.20;;;;;;;16.48;65.78;98283.09;3604941;39;20059;-66
2021/05/10 11:37:25;;;;;;;1.48;1.17;;;;;;;16.39;66.19;98303.25;3605246;40;20036;-66
2021/05/10 11:39:57;;;;;;;1.15;1.02;;;;;;;16.37;66.27;98315.19;3604268;40;20444;-66
2021/05/10 11:42:28;;;;;;;1.52;1.00;;;;;;;16.22;66.91;98327.22;3604959;40;20052;-67
2021/05/10 11:45:00;;;;;;;0.95;0.88;;;;;;;16.21;66.82;98319.47;3603842;40;20348;-65